Martinsdale, MT (59053)

11:43 PM MDT on September 17, 2014 (GMT -0600)
Mission | Change Station
CLOSE
Current Station
Airport
Location: Livingston,
Elevation: 4656 ft
Nearby Weather Stations

Elev 4656 ft 45.70 °N, 110.44 °W | Updated 50 minutes ago

Partly Cloudy
Partly Cloudy
58 °F
Feels Like 58 °F
N
7
Wind Variable Wind from South

Today
High -- | Low -- °F
--% Chance of Precip.
Yesterday
High -- | Low -- °F
Precip. -- in
7:01 AM 7:28 PM
Waning Crescent, 30% visible
Pressure 29.82 in
Visibility 10.0 miles
Clouds Clear
Dew Point 42 °F
Humidity 56%
Rainfall 0.02 in
Snow Depth 0 in , 1 in , 0 in
UV 0 out of 12
Pollen 6.90 out of 12
Air Quality Not available.
Flu Activity Not available.
METAR KLVM 180453Z AUTO 18006KT 10SM CLR 14/06 A2992 RMK AO2 SLP096 T01440056

More Conditions Fewer Conditions

Pressure 29.82 in
Visibility 10.0 miles
Clouds Clear
Dew Point 42 °F
Humidity 56%
Rainfall 0.02 in
Snow Depth 0 in , 1 in , 0 in
UV 0 out of 12
Pollen 6.90 out of 12
Air Quality Not available.
Flu Activity Not available.
METAR KLVM 180453Z AUTO 18006KT 10SM CLR 14/06 A2992 RMK AO2 SLP096 T01440056

More Conditions Fewer Conditions

10-Day Weather Forecast

Almanac

Astronomy

Sep. 17, 2014 Rise Set
Actual Time 7:01 AM MDT 7:28 PM MDT
Civil Twilight 6:31 AM MDT 7:58 PM MDT
Nautical Twilight 5:55 AM MDT 8:34 PM MDT
Astronomical Twilight 5:18 AM MDT 9:11 PM MDT
Moon 12:49 AM MDT (9/17) 3:55 PM MDT (9/17)
Length of Visible Light 13h 27m
Length of Day
12h 26m
Tomorrow will be 3m 16s shorter.
Waning Crescent, 30% of the Moon is Illuminated
Sep 18
Waning Crescent
Sep 24
New
Oct 1
First Quarter
Oct 8
Full
Oct 15
Last Quarter

Yesterday's Extremes

State Highs State Lows

Community

WunderPhotos

Upload Photos

1,754,292 photos uploaded!

Nearby

Snow Depth

Station Depth Elevation
Black Pine 0 in 7210 ft
Wood Creek 1 in 5960 ft
Shower Falls 0 in 8100 ft
Beagle Springs 0 in 8850 ft
Mule Creek 0 in 8300 ft

Earthquake Activity

City Distance Mag. Time & Date
No recent earthquake activity has been reported nearby.
Minimum magnitude displayed is 2.5.

Coastal Water Temperatures

Place Temperature
No Stations Reporting

Nearby Weather Stations